createdAt,value
2018-09-28T00:00:28.757Z,0.00
2018-09-28T00:01:29.375Z,0.00
2018-09-28T00:02:28.806Z,0.00
2018-09-28T00:03:28.635Z,0.00
2018-09-28T00:04:29.367Z,0.00
2018-09-28T00:05:28.613Z,0.00
2018-09-28T00:06:28.539Z,0.00
2018-09-28T00:07:28.516Z,0.00
2018-09-28T00:08:28.494Z,0.00
2018-09-28T00:09:29.369Z,0.00
2018-09-28T00:10:28.932Z,0.00
2018-09-28T00:11:29.369Z,0.00
2018-09-28T00:12:28.382Z,0.00
2018-09-28T00:13:28.338Z,0.00
2018-09-28T00:14:28.872Z,0.00
2018-09-28T00:15:28.324Z,0.00
2018-09-28T00:16:28.298Z,0.00
2018-09-28T00:17:28.882Z,0.00
2018-09-28T00:18:28.872Z,0.00
2018-09-28T00:19:28.869Z,0.00
2018-09-28T00:20:28.430Z,0.00
2018-09-28T00:21:28.424Z,0.00
2018-09-28T00:22:28.870Z,0.00
2018-09-28T00:23:28.056Z,0.00
2018-09-28T00:24:28.872Z,0.00
2018-09-28T00:25:28.426Z,0.00
2018-09-28T00:26:27.974Z,0.00
2018-09-28T00:27:28.420Z,0.00
2018-09-28T00:28:28.870Z,0.00
2018-09-28T00:29:28.873Z,0.00
2018-09-28T00:30:27.853Z,0.00
2018-09-28T00:31:27.925Z,0.00
2018-09-28T00:32:28.375Z,0.00
2018-09-28T00:33:27.777Z,0.00
2018-09-28T00:34:27.789Z,0.00
2018-09-28T00:35:28.374Z,0.00
2018-09-28T00:36:27.942Z,0.00
2018-09-28T00:37:28.377Z,0.00
2018-09-28T00:38:27.626Z,0.00
2018-09-28T00:39:28.378Z,0.00
2018-09-28T00:40:27.567Z,0.00
2018-09-28T00:41:27.925Z,0.00
2018-09-28T00:42:27.922Z,0.00
2018-09-28T00:43:28.375Z,0.00
2018-09-28T00:44:28.374Z,0.00
2018-09-28T00:45:28.283Z,0.00
2018-09-28T00:46:28.377Z,0.00
2018-09-28T00:47:27.415Z,0.00
2018-09-28T00:48:27.878Z,0.00
2018-09-28T00:49:27.874Z,0.00
2018-09-28T00:50:27.276Z,0.00
2018-09-28T00:51:27.879Z,0.00
2018-09-28T00:52:27.291Z,0.00
2018-09-28T00:53:27.191Z,0.00
2018-09-28T00:54:27.891Z,0.00
2018-09-28T00:55:27.133Z,0.00
2018-09-28T00:56:27.876Z,0.00
2018-09-28T00:57:27.114Z,0.00
2018-09-28T00:58:27.089Z,0.00
2018-09-28T00:59:27.877Z,0.00
2018-09-28T01:00:26.986Z,0.00
2018-09-28T01:01:27.005Z,0.00
2018-09-28T01:02:26.933Z,0.00
2018-09-28T01:03:27.879Z,0.00
2018-09-28T01:04:26.909Z,0.00
2018-09-28T01:05:27.391Z,0.00
2018-09-28T01:06:27.377Z,0.00
2018-09-28T01:07:27.382Z,0.00
2018-09-28T01:08:26.805Z,0.00
2018-09-28T01:09:26.783Z,0.00
2018-09-28T01:10:26.701Z,0.00
2018-09-28T01:11:27.379Z,0.00
2018-09-28T01:12:27.381Z,0.00
2018-09-28T01:13:26.658Z,0.00
2018-09-28T01:14:26.583Z,0.00
2018-09-28T01:15:26.602Z,0.00
2018-09-28T01:16:26.526Z,0.00
2018-09-28T01:17:27.395Z,0.00
2018-09-28T01:18:26.949Z,0.00
2018-09-28T01:19:27.390Z,0.00
2018-09-28T01:20:27.388Z,0.00
2018-09-28T01:21:26.384Z,0.00
2018-09-28T01:22:26.887Z,0.00
2018-09-28T01:23:26.442Z,0.00
2018-09-28T01:24:26.885Z,0.00
2018-09-28T01:25:26.275Z,0.00
2018-09-28T01:26:26.238Z,0.00
2018-09-28T01:27:26.893Z,0.00
2018-09-28T01:28:26.224Z,0.00
2018-09-28T01:29:26.885Z,0.00
2018-09-28T01:30:26.133Z,0.00
2018-09-28T01:31:26.882Z,0.00
2018-09-28T01:32:26.887Z,0.00
2018-09-28T01:33:26.436Z,0.00
2018-09-28T01:34:26.014Z,0.00
2018-09-28T01:35:25.978Z,0.00
2018-09-28T01:36:25.971Z,0.00
2018-09-28T01:37:26.885Z,0.00
2018-09-28T01:38:26.452Z,0.00
2018-09-28T01:39:25.867Z,0.00
2018-09-28T01:40:25.834Z,0.00
2018-09-28T01:41:26.386Z,0.00
2018-09-28T01:42:26.383Z,0.00
2018-09-28T01:43:25.939Z,0.00
2018-09-28T01:44:26.384Z,0.00
2018-09-28T01:45:26.386Z,0.00
2018-09-28T01:46:25.660Z,0.00
2018-09-28T01:47:25.633Z,0.00
2018-09-28T01:48:25.944Z,0.00
2018-09-28T01:49:26.389Z,0.00
2018-09-28T01:50:26.416Z,0.00
2018-09-28T01:51:26.388Z,0.00
2018-09-28T01:52:26.391Z,0.00
2018-09-28T01:53:25.949Z,0.00
2018-09-28T01:54:25.428Z,0.00
2018-09-28T01:55:26.408Z,0.00
2018-09-28T01:56:25.388Z,0.00
2018-09-28T01:57:25.890Z,0.00
2018-09-28T01:58:25.360Z,0.00
2018-09-28T01:59:25.888Z,0.00
2018-09-28T02:00:25.261Z,0.00
2018-09-28T02:01:25.267Z,0.00
2018-09-28T02:02:25.886Z,0.00
2018-09-28T02:03:25.168Z,0.00
2018-09-28T02:04:25.441Z,0.00
2018-09-28T02:05:25.107Z,0.00
2018-09-28T02:06:25.123Z,0.00
2018-09-28T02:07:25.888Z,0.00
2018-09-28T02:08:25.886Z,0.00
2018-09-28T02:09:24.991Z,0.00
2018-09-28T02:10:25.888Z,0.00
2018-09-28T02:11:25.438Z,0.00
2018-09-28T02:12:24.940Z,0.00
2018-09-28T02:13:24.876Z,0.00
2018-09-28T02:14:24.944Z,0.00
2018-09-28T02:15:24.818Z,0.00
2018-09-28T02:16:25.390Z,0.00
2018-09-28T02:17:24.891Z,0.00
2018-09-28T02:18:25.391Z,0.00
2018-09-28T02:19:24.725Z,0.00
2018-09-28T02:20:24.676Z,0.00
2018-09-28T02:21:25.392Z,0.00
2018-09-28T02:22:24.691Z,0.00
2018-09-28T02:23:24.591Z,0.00
2018-09-28T02:24:24.556Z,0.00
2018-09-28T02:25:24.946Z,0.00
2018-09-28T02:26:25.391Z,0.00
2018-09-28T02:27:24.471Z,0.00
2018-09-28T02:28:25.403Z,0.00
2018-09-28T02:29:24.422Z,0.00
2018-09-28T02:30:24.434Z,0.00
2018-09-28T02:31:24.353Z,0.00
2018-09-28T02:32:24.894Z,0.00
2018-09-28T02:33:24.296Z,0.00
2018-09-28T02:34:24.267Z,0.00
2018-09-28T02:35:24.281Z,0.00
2018-09-28T02:36:24.213Z,0.00
2018-09-28T02:37:24.894Z,0.00
2018-09-28T02:38:24.898Z,0.00
2018-09-28T02:39:24.892Z,0.00
2018-09-28T02:40:24.455Z,0.00
2018-09-28T02:41:24.896Z,0.00
2018-09-28T02:42:24.040Z,0.00
2018-09-28T02:43:24.449Z,0.00
2018-09-28T02:44:23.976Z,0.00
2018-09-28T02:45:23.950Z,0.00
2018-09-28T02:46:23.920Z,0.00
2018-09-28T02:47:24.399Z,0.00
2018-09-28T02:48:23.913Z,0.00
2018-09-28T02:49:24.402Z,0.00
2018-09-28T02:50:23.803Z,0.00
2018-09-28T02:51:24.396Z,0.00
2018-09-28T02:52:23.796Z,0.00
2018-09-28T02:53:23.720Z,0.00
2018-09-28T02:54:23.726Z,0.00
2018-09-28T02:55:23.699Z,0.00
2018-09-28T02:56:24.396Z,0.00
2018-09-28T02:57:24.396Z,0.00
2018-09-28T02:58:23.574Z,0.00
2018-09-28T02:59:23.952Z,0.00
2018-09-28T03:00:23.516Z,0.00
2018-09-28T03:01:24.396Z,0.00
2018-09-28T03:02:23.502Z,0.00
2018-09-28T03:03:23.430Z,0.00
2018-09-28T03:04:23.402Z,0.00
2018-09-28T03:05:23.897Z,0.00
2018-09-28T03:06:23.475Z,0.00
2018-09-28T03:07:23.362Z,0.00
2018-09-28T03:08:23.284Z,0.00
2018-09-28T03:09:23.260Z,0.00
2018-09-28T03:10:23.227Z,0.00
2018-09-28T03:11:23.447Z,0.00
2018-09-28T03:12:23.211Z,0.00
2018-09-28T03:13:23.903Z,0.00
2018-09-28T03:14:23.119Z,0.00
2018-09-28T03:15:23.088Z,0.00
2018-09-28T03:16:23.899Z,0.00
2018-09-28T03:17:23.070Z,0.00
2018-09-28T03:18:23.901Z,0.00
2018-09-28T03:19:23.900Z,0.00
2018-09-28T03:20:23.898Z,0.00
2018-09-28T03:21:22.910Z,0.00
2018-09-28T03:22:22.918Z,0.00
2018-09-28T03:23:23.403Z,0.00
2018-09-28T03:24:22.826Z,0.00
2018-09-28T03:25:23.405Z,0.00
2018-09-28T03:26:23.401Z,0.00
2018-09-28T03:27:22.782Z,0.00
2018-09-28T03:28:22.954Z,0.00
2018-09-28T03:29:23.400Z,0.00
2018-09-28T03:30:22.647Z,0.00
2018-09-28T03:31:22.618Z,0.00
2018-09-28T03:32:22.595Z,0.00
2018-09-28T03:33:22.608Z,0.00
2018-09-28T03:34:22.534Z,0.00
2018-09-28T03:35:22.503Z,0.00
2018-09-28T03:36:22.475Z,0.00
2018-09-28T03:37:22.445Z,0.00
2018-09-28T03:38:22.957Z,0.00
2018-09-28T03:39:22.465Z,0.00
2018-09-28T03:40:22.908Z,0.00
2018-09-28T03:41:22.331Z,0.00
2018-09-28T03:42:22.906Z,0.00
2018-09-28T03:43:22.910Z,0.00
2018-09-28T03:44:22.460Z,0.00
2018-09-28T03:45:22.214Z,0.00
2018-09-28T03:46:22.901Z,0.00
2018-09-28T03:47:22.158Z,0.00
2018-09-28T03:48:22.913Z,0.00
2018-09-28T03:49:22.206Z,0.00
2018-09-28T03:50:22.069Z,0.00
2018-09-28T03:51:22.043Z,0.00
2018-09-28T03:52:22.007Z,0.00
2018-09-28T03:53:21.982Z,0.00
2018-09-28T03:54:22.009Z,0.00
2018-09-28T03:55:21.923Z,0.00
2018-09-28T03:56:22.425Z,0.00
2018-09-28T03:57:22.426Z,0.00
2018-09-28T03:58:21.836Z,0.00
2018-09-28T03:59:21.869Z,0.00
2018-09-28T04:00:21.779Z,0.00
2018-09-28T04:01:22.406Z,0.00
2018-09-28T04:02:21.963Z,0.00
2018-09-28T04:03:22.406Z,0.00
2018-09-28T04:04:21.681Z,0.00
2018-09-28T04:05:21.962Z,0.00
2018-09-28T04:06:21.602Z,0.00
2018-09-28T04:07:22.410Z,0.00
2018-09-28T04:08:22.406Z,0.00
2018-09-28T04:09:21.516Z,0.00
2018-09-28T04:10:21.540Z,0.00
2018-09-28T04:11:22.408Z,0.00
2018-09-28T04:12:21.427Z,0.00
2018-09-28T04:13:21.911Z,0.00
2018-09-28T04:14:21.370Z,0.00
2018-09-28T04:15:21.396Z,0.00
2018-09-28T04:16:21.317Z,0.00
2018-09-28T04:17:21.908Z,0.00
2018-09-28T04:18:21.459Z,0.00
2018-09-28T04:19:21.907Z,0.00
2018-09-28T04:20:21.911Z,0.00
2018-09-28T04:21:21.222Z,0.00
2018-09-28T04:22:21.910Z,0.00
2018-09-28T04:23:21.138Z,0.00
2018-09-28T04:24:21.100Z,0.00
2018-09-28T04:25:21.050Z,0.00
2018-09-28T04:26:21.469Z,0.00
2018-09-28T04:27:21.004Z,0.00
2018-09-28T04:28:21.911Z,0.00
2018-09-28T04:29:20.934Z,4.00
2018-09-28T04:30:20.909Z,4.00
2018-09-28T04:31:20.965Z,0.00
2018-09-28T04:32:20.850Z,4.00
2018-09-28T04:33:20.821Z,4.00
2018-09-28T04:34:20.790Z,4.00
2018-09-28T04:35:21.418Z,8.00
2018-09-28T04:36:22.207Z,8.00
2018-09-28T04:37:20.702Z,8.00
2018-09-28T04:38:20.674Z,12.00
2018-09-28T04:39:20.968Z,12.00
2018-09-28T04:40:20.659Z,12.00
2018-09-28T04:41:20.585Z,16.00
2018-09-28T04:42:20.556Z,16.00
2018-09-28T04:43:20.529Z,24.00
2018-09-28T04:44:20.540Z,24.00
2018-09-28T04:45:20.572Z,32.00
2018-09-28T04:46:20.967Z,36.00
2018-09-28T04:47:20.410Z,40.00
2018-09-28T04:48:20.382Z,48.00
2018-09-28T04:49:20.356Z,56.00
2018-09-28T04:50:20.916Z,68.00
2018-09-28T04:51:20.336Z,76.00
2018-09-28T04:52:20.915Z,84.00
2018-09-28T04:53:20.240Z,96.00
2018-09-28T04:54:20.212Z,108.00
2018-09-28T04:55:20.177Z,120.00
2018-09-28T04:56:20.202Z,140.00
2018-09-28T04:57:20.118Z,152.00
2018-09-28T04:58:20.093Z,164.00
2018-09-28T04:59:20.060Z,172.00
2018-09-28T05:00:20.032Z,180.00
2018-09-28T05:01:20.059Z,184.00
2018-09-28T05:02:21.823Z,188.00
2018-09-28T05:03:19.947Z,208.00
2018-09-28T05:04:19.915Z,232.00
2018-09-28T05:05:19.890Z,244.00
2018-09-28T05:06:19.900Z,236.00
2018-09-28T05:07:19.875Z,228.00
2018-09-28T05:08:20.421Z,240.00
2018-09-28T05:09:19.779Z,252.00
2018-09-28T05:10:19.746Z,236.00
2018-09-28T05:11:19.716Z,220.00
2018-09-28T05:12:19.746Z,208.00
2018-09-28T05:13:19.658Z,220.00
2018-09-28T05:14:19.630Z,240.00
2018-09-28T05:15:19.600Z,236.00
2018-09-28T05:16:19.581Z,224.00
2018-09-28T05:17:19.999Z,244.00
2018-09-28T05:18:19.531Z,272.00
2018-09-28T05:19:20.425Z,288.00
2018-09-28T05:20:19.459Z,296.00
2018-09-28T05:21:19.429Z,332.00
2018-09-28T05:22:19.442Z,384.00
2018-09-28T05:23:19.373Z,416.00
2018-09-28T05:24:19.344Z,452.00
2018-09-28T05:25:19.340Z,480.00
2018-09-28T05:26:19.285Z,532.00
2018-09-28T05:27:19.305Z,604.00
2018-09-28T05:28:19.229Z,636.00
2018-09-28T05:29:19.204Z,672.00
2018-09-28T05:30:19.171Z,720.00
2018-09-28T05:31:19.301Z,772.00
2018-09-28T05:32:19.306Z,812.00
2018-09-28T05:33:19.135Z,848.00
2018-09-28T05:34:19.955Z,888.00
2018-09-28T05:35:19.921Z,912.00
2018-09-28T05:36:19.067Z,916.00
2018-09-28T05:37:19.541Z,896.00
2018-09-28T05:38:19.925Z,840.00
2018-09-28T05:39:18.975Z,812.00
2018-09-28T05:40:18.888Z,816.00
2018-09-28T05:41:18.865Z,840.00
2018-09-28T05:42:18.830Z,868.00
2018-09-28T05:43:18.802Z,888.00
2018-09-28T05:44:18.819Z,924.00
2018-09-28T05:45:18.791Z,940.00
2018-09-28T05:46:18.781Z,796.00
2018-09-28T05:47:18.689Z,564.00
2018-09-28T05:48:18.668Z,528.00
2018-09-28T05:49:18.673Z,668.00
2018-09-28T05:50:18.979Z,796.00
2018-09-28T05:51:18.631Z,840.00
2018-09-28T05:52:18.551Z,828.00
2018-09-28T05:53:19.435Z,640.00
2018-09-28T05:54:18.536Z,540.00
2018-09-28T05:55:19.425Z,556.00
2018-09-28T05:56:18.437Z,624.00
2018-09-28T05:57:18.411Z,656.00
2018-09-28T05:58:18.384Z,676.00
2018-09-28T05:59:18.494Z,724.00
2018-09-28T06:00:18.355Z,800.00
2018-09-28T06:01:18.924Z,836.00
2018-09-28T06:02:18.267Z,832.00
2018-09-28T06:03:18.241Z,816.00
2018-09-28T06:04:18.256Z,860.00
2018-09-28T06:05:18.191Z,896.00
2018-09-28T06:06:18.155Z,816.00
2018-09-28T06:07:18.140Z,684.00
2018-09-28T06:08:18.169Z,592.00
2018-09-28T06:09:18.126Z,516.00
2018-09-28T06:10:18.048Z,504.00
2018-09-28T06:11:18.022Z,516.00
2018-09-28T06:12:17.988Z,524.00
2018-09-28T06:13:17.961Z,512.00
2018-09-28T06:14:17.985Z,512.00
2018-09-28T06:15:17.905Z,544.00
2018-09-28T06:16:17.925Z,544.00
2018-09-28T06:17:17.850Z,552.00
2018-09-28T06:18:17.818Z,584.00
2018-09-28T06:19:17.838Z,612.00
2018-09-28T06:20:17.768Z,648.00
2018-09-28T06:21:17.779Z,708.00
2018-09-28T06:22:17.710Z,856.00
2018-09-28T06:23:17.685Z,1008.00
2018-09-28T06:24:17.710Z,1060.00
2018-09-28T06:25:17.623Z,1164.00
2018-09-28T06:26:17.641Z,1292.00
2018-09-28T06:27:17.569Z,1328.00
2018-09-28T06:28:17.541Z,1436.00
2018-09-28T06:29:17.514Z,1904.00
2018-09-28T06:30:17.541Z,2304.00
2018-09-28T06:31:17.560Z,2340.00
2018-09-28T06:32:17.429Z,2356.00
2018-09-28T06:33:17.405Z,2292.00
2018-09-28T06:34:17.937Z,2312.00
2018-09-28T06:35:17.346Z,2564.00
2018-09-28T06:36:17.389Z,2492.00
2018-09-28T06:37:17.934Z,2292.00
2018-09-28T06:38:17.932Z,2272.00
2018-09-28T06:39:17.232Z,2344.00
2018-09-28T06:40:17.206Z,3008.00
2018-09-28T06:41:17.993Z,3688.00
2018-09-28T06:42:17.216Z,3788.00
2018-09-28T06:43:17.125Z,3796.00
2018-09-28T06:44:17.099Z,3920.00
2018-09-28T06:45:17.067Z,3964.00
2018-09-28T06:46:17.050Z,3904.00
2018-09-28T06:47:17.056Z,3740.00
2018-09-28T06:48:17.064Z,3996.00
2018-09-28T06:49:16.958Z,4016.00
2018-09-28T06:50:16.935Z,3884.00
2018-09-28T06:51:16.928Z,4040.00
2018-09-28T06:52:16.937Z,3924.00
2018-09-28T06:53:16.848Z,4160.00
2018-09-28T06:54:16.894Z,4680.00
2018-09-28T06:55:16.792Z,4868.00
2018-09-28T06:56:16.804Z,4564.00
2018-09-28T06:57:16.792Z,3988.00
2018-09-28T06:58:16.776Z,3708.00
2018-09-28T06:59:17.440Z,3768.00
2018-09-28T07:00:16.820Z,3552.00
2018-09-28T07:01:16.627Z,3512.00
2018-09-28T07:02:16.645Z,3244.00
2018-09-28T07:03:16.596Z,3184.00
2018-09-28T07:04:16.544Z,2944.00
2018-09-28T07:05:16.561Z,3192.00
2018-09-28T07:06:17.447Z,3952.00
2018-09-28T07:07:16.466Z,4200.00
2018-09-28T07:08:16.436Z,4224.00
2018-09-28T07:09:16.468Z,3816.00
2018-09-28T07:10:16.427Z,3880.00
2018-09-28T07:11:16.353Z,4988.00
2018-09-28T07:12:16.389Z,5436.00
2018-09-28T07:13:16.313Z,5260.00
2018-09-28T07:14:16.941Z,4980.00
2018-09-28T07:15:16.287Z,5524.00
2018-09-28T07:16:16.276Z,5532.00
2018-09-28T07:17:16.191Z,4760.00
2018-09-28T07:18:16.975Z,4788.00
2018-09-28T07:19:16.940Z,4448.00
2018-09-28T07:20:16.488Z,3940.00
2018-09-28T07:21:16.942Z,3732.00
2018-09-28T07:22:16.938Z,3364.00
2018-09-28T07:23:16.088Z,3372.00
2018-09-28T07:24:16.115Z,3292.00
2018-09-28T07:25:16.049Z,3344.00
2018-09-28T07:26:15.943Z,3468.00
2018-09-28T07:27:15.921Z,3680.00
2018-09-28T07:28:15.935Z,4240.00
2018-09-28T07:29:15.889Z,4528.00
2018-09-28T07:30:15.843Z,4728.00
2018-09-28T07:31:15.815Z,4708.00
2018-09-28T07:32:15.820Z,4000.00
2018-09-28T07:33:15.764Z,3632.00
2018-09-28T07:34:15.769Z,3556.00
2018-09-28T07:35:15.700Z,3592.00
2018-09-28T07:36:16.513Z,3620.00
2018-09-28T07:37:16.552Z,3616.00
2018-09-28T07:38:15.992Z,3584.00
2018-09-28T07:39:16.442Z,3588.00
2018-09-28T07:40:15.601Z,3580.00
2018-09-28T07:41:15.544Z,3612.00
2018-09-28T07:42:15.575Z,3588.00
2018-09-28T07:43:15.479Z,3556.00
2018-09-28T07:44:15.523Z,3568.00
2018-09-28T07:45:15.434Z,3668.00
2018-09-28T07:46:15.404Z,4120.00
2018-09-28T07:47:15.371Z,5552.00
2018-09-28T07:48:15.963Z,5092.00
2018-09-28T07:49:15.560Z,5780.00
2018-09-28T07:50:15.297Z,4248.00
2018-09-28T07:51:15.262Z,4364.00
2018-09-28T07:52:15.232Z,4448.00
2018-09-28T07:53:15.949Z,4720.00
2018-09-28T07:54:15.219Z,5184.00
2018-09-28T07:55:15.246Z,5728.00
2018-09-28T07:56:15.123Z,5620.00
2018-09-28T07:57:15.095Z,5020.00
2018-09-28T07:58:15.064Z,4408.00
2018-09-28T07:59:15.190Z,3928.00
2018-09-28T08:00:15.015Z,3628.00
2018-09-28T08:01:14.984Z,3664.00
2018-09-28T08:02:14.960Z,3744.00
2018-09-28T08:03:15.488Z,3804.00
2018-09-28T08:04:14.940Z,3936.00
2018-09-28T08:05:14.924Z,4140.00
2018-09-28T08:06:14.846Z,4352.00
2018-09-28T08:07:14.833Z,4464.00
2018-09-28T08:08:15.453Z,4476.00
2018-09-28T08:09:14.762Z,4312.00
2018-09-28T08:10:14.781Z,4128.00
2018-09-28T08:11:14.711Z,4028.00
2018-09-28T08:12:14.681Z,3864.00
2018-09-28T08:13:14.654Z,3756.00
2018-09-28T08:14:14.669Z,3732.00
2018-09-28T08:15:14.643Z,3732.00
2018-09-28T08:16:14.587Z,3696.00
2018-09-28T08:17:14.546Z,3684.00
2018-09-28T08:18:14.517Z,3744.00
2018-09-28T08:19:14.490Z,3848.00
2018-09-28T08:20:14.535Z,3940.00
2018-09-28T08:21:14.478Z,3988.00
2018-09-28T08:22:14.407Z,4044.00
2018-09-28T08:23:14.436Z,4116.00
2018-09-28T08:24:14.351Z,4152.00
2018-09-28T08:25:14.386Z,4240.00
2018-09-28T08:26:14.299Z,4320.00
2018-09-28T08:27:14.268Z,4392.00
2018-09-28T08:28:14.242Z,4540.00
2018-09-28T08:29:14.214Z,4744.00
2018-09-28T08:30:14.232Z,4888.00
2018-09-28T08:31:14.165Z,5104.00
2018-09-28T08:32:14.131Z,5428.00
2018-09-28T08:33:14.147Z,5960.00
2018-09-28T08:34:14.077Z,6696.00
2018-09-28T08:35:14.058Z,7504.00
2018-09-28T08:36:14.961Z,7884.00
2018-09-28T08:37:13.996Z,7556.00
2018-09-28T08:38:14.014Z,7136.00
2018-09-28T08:39:13.942Z,7068.00
2018-09-28T08:40:13.959Z,7092.00
2018-09-28T08:41:13.891Z,7196.00
2018-09-28T08:42:13.864Z,7424.00
2018-09-28T08:43:13.833Z,7792.00
2018-09-28T08:44:16.458Z,8428.00
2018-09-28T08:45:13.864Z,9036.00
2018-09-28T08:46:13.751Z,9656.00
2018-09-28T08:47:14.457Z,9804.00
2018-09-28T08:48:13.700Z,9500.00
2018-09-28T08:49:14.492Z,8808.00
2018-09-28T08:50:13.705Z,8300.00
2018-09-28T08:51:13.617Z,8164.00
2018-09-28T08:52:13.593Z,8124.00
2018-09-28T08:53:14.460Z,8544.00
2018-09-28T08:54:13.537Z,8632.00
2018-09-28T08:55:13.550Z,8580.00
2018-09-28T08:56:13.487Z,8480.00
2018-09-28T08:57:13.957Z,8728.00
2018-09-28T08:58:13.429Z,9428.00
2018-09-28T08:59:13.404Z,9784.00
2018-09-28T09:00:13.446Z,9448.00
2018-09-28T09:01:13.351Z,8820.00
2018-09-28T09:02:13.344Z,8444.00
2018-09-28T09:03:13.341Z,8448.00
2018-09-28T09:04:13.279Z,8660.00
2018-09-28T09:05:13.246Z,8832.00
2018-09-28T09:06:13.517Z,9032.00
2018-09-28T09:07:13.197Z,9300.00
2018-09-28T09:08:13.171Z,9232.00
2018-09-28T09:09:13.149Z,8808.00
2018-09-28T09:10:13.143Z,8444.00
2018-09-28T09:11:13.128Z,8440.00
2018-09-28T09:12:13.060Z,8552.00
2018-09-28T09:13:13.044Z,8496.00
2018-09-28T09:14:13.007Z,8416.00
2018-09-28T09:15:13.002Z,8504.00
2018-09-28T09:16:13.007Z,8780.00
2018-09-28T09:17:12.931Z,9504.00
2018-09-28T09:18:13.072Z,10712.00
2018-09-28T09:19:13.466Z,12124.00
2018-09-28T09:20:12.855Z,12732.00
2018-09-28T09:21:12.886Z,12188.00
2018-09-28T09:22:12.857Z,11444.00
2018-09-28T09:23:12.773Z,10824.00
2018-09-28T09:24:12.753Z,10256.00
2018-09-28T09:25:12.722Z,10292.00
2018-09-28T09:26:12.741Z,10568.00
2018-09-28T09:27:12.676Z,10588.00
2018-09-28T09:28:13.465Z,10072.00
2018-09-28T09:29:12.679Z,9624.00
2018-09-28T09:30:12.641Z,9148.00
2018-09-28T09:31:12.609Z,8904.00
2018-09-28T09:32:12.596Z,9212.00
2018-09-28T09:33:13.473Z,9724.00
2018-09-28T09:34:12.484Z,10144.00
2018-09-28T09:35:12.462Z,9776.00
2018-09-28T09:36:12.434Z,8800.00
2018-09-28T09:37:12.452Z,7800.00
2018-09-28T09:38:12.382Z,6920.00
2018-09-28T09:39:12.364Z,6284.00
2018-09-28T09:40:12.337Z,6016.00
2018-09-28T09:41:12.304Z,6020.00
2018-09-28T09:42:12.321Z,6248.00
2018-09-28T09:43:12.250Z,6852.00
2018-09-28T09:44:12.231Z,7528.00
2018-09-28T09:45:12.253Z,7864.00
2018-09-28T09:46:12.175Z,7488.00
2018-09-28T09:47:12.147Z,8080.00
2018-09-28T09:48:12.129Z,8652.00
2018-09-28T09:49:12.099Z,8764.00
2018-09-28T09:50:12.116Z,9020.00
2018-09-28T09:51:12.080Z,9456.00
2018-09-28T09:52:12.016Z,9960.00
2018-09-28T09:53:12.035Z,10224.00
2018-09-28T09:54:11.971Z,10592.00
2018-09-28T09:55:11.942Z,10988.00
2018-09-28T09:56:11.914Z,11436.00
2018-09-28T09:57:11.885Z,11596.00
2018-09-28T09:58:11.970Z,9968.00
2018-09-28T09:59:11.835Z,7528.00
2018-09-28T10:00:11.806Z,6440.00
2018-09-28T10:01:11.845Z,6740.00
2018-09-28T10:02:11.798Z,7480.00
2018-09-28T10:03:11.727Z,8580.00
2018-09-28T10:04:11.743Z,9880.00
2018-09-28T10:05:11.679Z,10452.00
2018-09-28T10:06:11.651Z,9704.00
2018-09-28T10:07:12.030Z,8644.00
2018-09-28T10:08:12.475Z,7732.00
2018-09-28T10:09:11.581Z,7368.00
2018-09-28T10:10:11.554Z,7000.00
2018-09-28T10:11:11.523Z,7136.00
2018-09-28T10:12:11.543Z,7664.00
2018-09-28T10:13:11.982Z,7952.00
2018-09-28T10:14:11.447Z,8112.00
2018-09-28T10:15:11.418Z,7408.00
2018-09-28T10:16:11.391Z,6804.00
2018-09-28T10:17:11.884Z,6708.00
2018-09-28T10:18:11.342Z,6712.00
2018-09-28T10:19:11.339Z,7220.00
2018-09-28T10:20:11.288Z,7600.00
2018-09-28T10:21:11.322Z,7572.00
2018-09-28T10:22:11.279Z,7352.00
2018-09-28T10:23:11.215Z,7252.00
2018-09-28T10:24:11.197Z,7288.00
2018-09-28T10:25:11.160Z,7276.00
2018-09-28T10:26:11.133Z,6924.00
2018-09-28T10:27:11.151Z,6436.00
2018-09-28T10:28:11.219Z,6404.00
2018-09-28T10:29:11.055Z,6564.00
2018-09-28T10:30:11.029Z,6776.00
2018-09-28T10:31:11.927Z,6416.00
2018-09-28T10:32:10.981Z,6200.00
2018-09-28T10:33:10.989Z,6284.00
2018-09-28T10:34:10.991Z,6792.00
2018-09-28T10:35:10.899Z,6968.00
2018-09-28T10:36:10.875Z,7684.00
2018-09-28T10:37:10.854Z,8704.00
2018-09-28T10:38:10.821Z,8976.00
2018-09-28T10:39:10.915Z,7764.00
2018-09-28T10:40:10.796Z,6892.00
2018-09-28T10:41:10.783Z,5816.00
2018-09-28T10:42:10.718Z,5680.00
2018-09-28T10:43:10.688Z,5464.00
2018-09-28T10:44:11.036Z,5024.00
2018-09-28T10:45:10.645Z,4980.00
2018-09-28T10:46:10.608Z,5832.00
2018-09-28T10:47:10.590Z,6020.00
2018-09-28T10:48:10.557Z,5148.00
2018-09-28T10:49:10.572Z,4920.00
2018-09-28T10:50:10.502Z,4720.00
2018-09-28T10:51:10.524Z,5156.00
2018-09-28T10:52:10.658Z,5648.00
2018-09-28T10:53:10.492Z,5908.00
2018-09-28T10:54:10.435Z,5428.00
2018-09-28T10:55:10.370Z,5512.00
2018-09-28T10:56:10.346Z,5668.00
2018-09-28T10:57:10.547Z,5768.00
2018-09-28T10:58:11.023Z,5380.00
2018-09-28T10:59:10.267Z,5248.00
2018-09-28T11:00:10.238Z,5112.00
2018-09-28T11:01:10.541Z,5024.00
2018-09-28T11:02:10.189Z,4840.00
2018-09-28T11:03:10.214Z,4796.00
2018-09-28T11:04:10.201Z,4444.00
2018-09-28T11:05:10.109Z,4540.00
2018-09-28T11:06:10.080Z,4356.00
2018-09-28T11:07:10.061Z,4336.00
2018-09-28T11:08:10.027Z,4980.00
2018-09-28T11:09:10.067Z,5448.00
2018-09-28T11:10:09.994Z,6136.00
2018-09-28T11:11:09.947Z,6116.00
2018-09-28T11:12:09.918Z,6944.00
2018-09-28T11:13:09.891Z,6948.00
2018-09-28T11:14:09.924Z,6588.00
2018-09-28T11:15:09.898Z,6224.00
2018-09-28T11:16:09.837Z,6048.00
2018-09-28T11:17:09.789Z,5552.00
2018-09-28T11:22:44.345Z,6760.00
2018-09-28T11:23:44.278Z,6936.00
2018-09-28T11:24:44.247Z,6728.00
2018-09-28T11:25:44.264Z,6136.00
2018-09-28T11:26:44.240Z,6532.00
2018-09-28T11:27:44.196Z,6784.00
2018-09-28T11:28:44.143Z,6060.00
2018-09-28T11:29:44.117Z,5476.00
2018-09-28T11:30:44.090Z,5200.00
2018-09-28T11:31:44.535Z,5644.00
2018-09-28T11:32:44.040Z,6508.00
2018-09-28T11:33:44.048Z,7756.00
2018-09-28T11:34:43.988Z,9272.00
2018-09-28T11:35:44.005Z,10040.00
2018-09-28T11:36:43.944Z,8816.00
2018-09-28T11:37:43.971Z,7924.00
2018-09-28T11:38:43.884Z,6392.00
2018-09-28T11:39:43.877Z,5648.00
2018-09-28T11:40:43.876Z,5248.00
2018-09-28T11:41:43.805Z,5488.00
2018-09-28T11:42:43.783Z,5880.00
2018-09-28T11:43:43.757Z,6244.00
2018-09-28T11:44:43.731Z,6912.00
2018-09-28T11:45:44.104Z,7268.00
2018-09-28T11:46:44.486Z,7600.00
2018-09-28T11:47:44.487Z,7948.00
2018-09-28T11:48:43.675Z,8060.00
2018-09-28T11:49:43.600Z,8096.00
2018-09-28T11:50:44.496Z,8336.00
2018-09-28T11:51:43.647Z,8812.00
2018-09-28T11:52:43.526Z,9212.00
2018-09-28T11:53:43.500Z,8656.00
2018-09-28T11:54:43.554Z,7716.00
2018-09-28T11:55:43.449Z,7588.00
2018-09-28T11:56:43.422Z,7492.00
2018-09-28T11:57:43.999Z,8172.00
2018-09-28T11:58:43.369Z,8876.00
2018-09-28T11:59:43.392Z,8884.00
2018-09-28T12:00:43.994Z,8280.00
2018-09-28T12:01:43.291Z,8380.00
2018-09-28T12:02:43.311Z,8704.00
2018-09-28T12:03:43.296Z,9252.00
2018-09-28T12:04:43.217Z,9824.00
2018-09-28T12:05:43.192Z,10568.00
2018-09-28T12:06:43.193Z,11636.00
2018-09-28T12:07:43.178Z,11948.00
2018-09-28T12:08:43.114Z,11912.00
2018-09-28T12:09:43.114Z,11200.00
2018-09-28T12:10:43.553Z,11360.00
2018-09-28T12:11:43.037Z,11996.00
2018-09-28T12:12:43.127Z,12620.00
2018-09-28T12:13:43.500Z,11284.00
2018-09-28T12:14:42.966Z,11280.00
2018-09-28T12:15:43.565Z,12688.00
2018-09-28T12:16:42.914Z,13420.00
2018-09-28T12:17:42.943Z,12768.00
2018-09-28T12:18:42.894Z,12224.00
2018-09-28T12:19:42.842Z,11816.00
2018-09-28T12:20:45.495Z,11548.00
2018-09-28T12:21:42.897Z,10976.00
2018-09-28T12:22:43.498Z,9972.00
2018-09-28T12:23:42.745Z,8772.00
2018-09-28T12:24:43.510Z,7792.00
2018-09-28T12:25:42.692Z,7612.00
2018-09-28T12:26:42.711Z,7608.00
2018-09-28T12:27:42.703Z,7300.00
2018-09-28T12:28:42.621Z,6640.00
2018-09-28T12:29:42.659Z,6604.00
2018-09-28T12:30:43.539Z,6140.00
2018-09-28T12:31:42.547Z,5880.00
2018-09-28T12:32:43.500Z,5468.00
2018-09-28T12:33:42.544Z,4588.00
2018-09-28T12:34:42.514Z,3856.00
2018-09-28T12:35:42.487Z,3444.00
2018-09-28T12:36:42.431Z,3440.00
2018-09-28T12:37:42.394Z,3516.00